createdAt,value
2023-04-02T00:00:18.885Z,98113.59
2023-04-02T00:05:52.161Z,98126.34
2023-04-02T00:10:57.812Z,98140.56
2023-04-02T00:16:04.389Z,98141.44
2023-04-02T00:21:13.720Z,98152.44
2023-04-02T00:26:25.514Z,98170.44
2023-04-02T00:31:31.027Z,98168.44
2023-04-02T00:36:35.875Z,98180.41
2023-04-02T00:41:39.130Z,98193.50
2023-04-02T00:46:49.537Z,98192.03
2023-04-02T00:51:55.813Z,98206.78
2023-04-02T00:56:59.857Z,98207.94
2023-04-02T01:02:26.478Z,98217.53
2023-04-02T01:07:48.415Z,98227.22
2023-04-02T01:12:59.853Z,98244.63
2023-04-02T01:18:18.613Z,98251.28
2023-04-02T01:23:29.467Z,98253.13
2023-04-02T01:28:46.550Z,98254.56
2023-04-02T01:33:49.966Z,98265.41
2023-04-02T01:39:02.223Z,98266.00
2023-04-02T01:44:08.870Z,98285.44
2023-04-02T01:49:15.157Z,98299.81
2023-04-02T01:54:19.024Z,98309.81
2023-04-02T01:59:24.245Z,98316.59
2023-04-02T02:04:33.507Z,98330.63
2023-04-02T02:09:37.260Z,98334.25
2023-04-02T02:14:48.148Z,98351.38
2023-04-02T02:19:54.790Z,98358.72
2023-04-02T02:25:00.284Z,98358.50
2023-04-02T02:30:12.399Z,98372.88
2023-04-02T02:35:22.157Z,98390.13
2023-04-02T02:40:30.973Z,98392.41
2023-04-02T02:45:39.753Z,98399.50
2023-04-02T02:50:44.277Z,98414.06
2023-04-02T02:55:50.905Z,98426.09
2023-04-02T03:00:59.966Z,98428.66
2023-04-02T03:06:06.945Z,98434.69
2023-04-02T03:11:17.015Z,98441.91
2023-04-02T03:16:29.967Z,98447.81
2023-04-02T03:21:40.699Z,98474.88
2023-04-02T03:26:50.153Z,98472.97
2023-04-02T03:32:01.564Z,98489.16
2023-04-02T03:37:12.508Z,98499.00
2023-04-02T03:42:21.386Z,98515.56
2023-04-02T03:47:34.373Z,98534.94
2023-04-02T03:52:40.041Z,98529.75
2023-04-02T03:57:55.151Z,98548.47
2023-04-02T04:03:11.189Z,98558.50
2023-04-02T04:08:18.297Z,98570.50
2023-04-02T04:13:27.420Z,98583.50
2023-04-02T04:18:37.911Z,98596.47
2023-04-02T04:23:52.200Z,98616.09
2023-04-02T04:29:09.811Z,98624.16
2023-04-02T04:34:20.259Z,98628.91
2023-04-02T04:39:31.736Z,98632.03
2023-04-02T04:44:42.390Z,98644.03
2023-04-02T04:49:53.933Z,98660.22
2023-04-02T04:54:58.016Z,98664.84
2023-04-02T05:00:12.952Z,98697.09
2023-04-02T05:05:21.675Z,98691.97
2023-04-02T05:10:35.952Z,98713.97
2023-04-02T05:15:42.808Z,98720.94
2023-04-02T05:20:53.326Z,98728.31
2023-04-02T05:26:02.975Z,98754.31
2023-04-02T05:31:12.193Z,98751.09
2023-04-02T05:36:24.473Z,98769.38
2023-04-02T05:41:36.799Z,98769.66
2023-04-02T05:46:47.502Z,98784.31
2023-04-02T05:51:57.938Z,98790.06
2023-04-02T05:57:04.854Z,98812.56
2023-04-02T06:02:22.206Z,98819.44
2023-04-02T06:07:32.138Z,98824.06
2023-04-02T06:12:41.252Z,98838.59
2023-04-02T06:17:48.310Z,98851.69
2023-04-02T06:22:56.769Z,98857.78
2023-04-02T06:28:04.409Z,98876.53
2023-04-02T06:33:08.945Z,98875.97
2023-04-02T06:38:21.830Z,98885.94
2023-04-02T06:43:33.756Z,98899.19
2023-04-02T06:49:00.304Z,98913.16
2023-04-02T06:54:05.005Z,98918.19
2023-04-02T06:59:08.372Z,98928.38
2023-04-02T07:04:12.073Z,98943.59
2023-04-02T07:09:22.061Z,98953.31
2023-04-02T07:14:29.459Z,98965.44
2023-04-02T07:19:32.407Z,98966.56
2023-04-02T07:24:37.482Z,98971.09
2023-04-02T07:29:43.016Z,98984.69
2023-04-02T07:34:46.070Z,98999.88
2023-04-02T07:39:50.434Z,99005.72
2023-04-02T07:44:53.362Z,99013.13
2023-04-02T07:49:56.278Z,99017.66
2023-04-02T07:55:02.093Z,99039.97
2023-04-02T08:00:07.498Z,99043.38
2023-04-02T08:05:30.352Z,99055.88
2023-04-02T08:10:34.645Z,99054.53
2023-04-02T08:15:37.839Z,99069.44
2023-04-02T08:20:40.924Z,99078.81
2023-04-02T08:25:45.518Z,99086.81
2023-04-02T08:30:50.072Z,99090.78
2023-04-02T08:35:53.130Z,99095.84
2023-04-02T08:41:03.086Z,99104.13
2023-04-02T08:46:14.148Z,99121.63
2023-04-02T08:51:24.777Z,99121.22
2023-04-02T08:56:35.029Z,99127.88
2023-04-02T09:01:48.335Z,99133.25
2023-04-02T09:06:53.614Z,99143.97
2023-04-02T09:12:01.278Z,99156.03
2023-04-02T09:17:05.653Z,99157.53
2023-04-02T09:22:15.853Z,99169.25
2023-04-02T09:27:22.243Z,99173.75
2023-04-02T09:32:49.966Z,99181.56
2023-04-02T09:38:16.403Z,99205.47
2023-04-02T09:43:23.043Z,99209.72
2023-04-02T09:48:30.314Z,99214.16
2023-04-02T09:53:36.158Z,99225.91
2023-04-02T09:58:41.173Z,99230.25
2023-04-02T10:03:44.573Z,99248.78
2023-04-02T10:08:48.021Z,99253.81
2023-04-02T10:13:54.457Z,99260.41
2023-04-02T10:18:59.799Z,99275.44
2023-04-02T10:24:03.047Z,99267.63
2023-04-02T10:29:30.144Z,99284.88
2023-04-02T10:34:42.873Z,99291.34
2023-04-02T10:39:52.460Z,99305.09
2023-04-02T10:45:04.812Z,99309.84
2023-04-02T10:50:29.468Z,99306.38
2023-04-02T10:55:39.844Z,99316.06
2023-04-02T11:00:47.816Z,99329.50
2023-04-02T11:05:52.510Z,99334.88
2023-04-02T11:11:04.470Z,99341.88
2023-04-02T11:16:09.422Z,99343.59
2023-04-02T11:21:54.957Z,99358.59
2023-04-02T11:27:16.999Z,99366.13
2023-04-02T11:32:34.664Z,99372.72
2023-04-02T11:37:39.844Z,99372.78
2023-04-02T11:42:43.752Z,99378.31
2023-04-02T11:48:27.757Z,99386.44
2023-04-02T11:53:34.830Z,99387.44
2023-04-02T11:58:51.005Z,99392.19
2023-04-02T12:04:08.961Z,99400.78
2023-04-02T12:09:22.454Z,99406.03
2023-04-02T12:14:42.922Z,99409.25
2023-04-02T12:19:52.474Z,99417.56
2023-04-02T12:24:58.202Z,99427.69
2023-04-02T12:30:14.547Z,99426.34
2023-04-02T12:35:29.362Z,99440.50
2023-04-02T12:40:32.360Z,99443.63
2023-04-02T12:45:36.628Z,99445.41
2023-04-02T12:50:41.916Z,99447.34
2023-04-02T12:55:48.418Z,99447.34
2023-04-02T13:00:51.363Z,99447.50
2023-04-02T13:05:57.803Z,99459.50
2023-04-02T13:11:02.637Z,99467.00
2023-04-02T13:16:10.090Z,99469.41
2023-04-02T13:21:28.738Z,99473.16
2023-04-02T13:26:31.914Z,99467.97
2023-04-02T13:31:34.869Z,99489.56
2023-04-02T13:36:39.273Z,99488.56
2023-04-02T13:41:44.413Z,99498.66
2023-04-02T13:46:47.662Z,99512.13
2023-04-02T13:51:53.746Z,99507.72
2023-04-02T13:56:57.224Z,99523.56
2023-04-02T14:02:05.620Z,99521.03
2023-04-02T14:07:38.254Z,99526.03
2023-04-02T14:12:54.028Z,99534.88
2023-04-02T14:18:11.369Z,99545.47
2023-04-02T14:23:31.394Z,99560.81
2023-04-02T14:28:44.966Z,99553.00
2023-04-02T14:33:59.393Z,99561.69
2023-04-02T14:39:12.119Z,99564.50
2023-04-02T14:44:18.019Z,99565.28
2023-04-02T14:49:27.305Z,99567.88
2023-04-02T14:54:37.463Z,99567.28
2023-04-02T14:59:51.698Z,99582.66
2023-04-02T15:05:01.519Z,99587.81
2023-04-02T15:10:15.476Z,99585.94
2023-04-02T15:15:36.930Z,99587.75
2023-04-02T15:20:53.425Z,99592.59
2023-04-02T15:26:08.219Z,99592.78
2023-04-02T15:31:14.954Z,99602.72
2023-04-02T15:36:33.825Z,99608.00
2023-04-02T15:41:42.506Z,99607.22
2023-04-02T15:46:55.439Z,99614.56
2023-04-02T15:52:09.146Z,99617.56
2023-04-02T15:57:23.246Z,99616.09
2023-04-02T16:02:46.490Z,99637.34
2023-04-02T16:08:09.127Z,99643.66
2023-04-02T16:13:19.203Z,99643.81
2023-04-02T16:18:34.007Z,99641.97
2023-04-02T16:23:38.853Z,99649.47
2023-04-02T16:28:50.130Z,99664.34
2023-04-02T16:34:02.558Z,99663.59
2023-04-02T16:39:14.829Z,99671.72
2023-04-02T16:44:31.456Z,99675.91
2023-04-02T16:49:38.699Z,99684.94
2023-04-02T16:54:50.876Z,99687.91
2023-04-02T17:00:02.318Z,99686.91
2023-04-02T17:05:15.980Z,99695.38
2023-04-02T17:10:30.101Z,99703.50
2023-04-02T17:15:40.690Z,99711.75
2023-04-02T17:20:43.726Z,99715.50
2023-04-02T17:25:51.790Z,99721.88
2023-04-02T17:30:59.776Z,99727.22
2023-04-02T17:36:24.057Z,99728.06
2023-04-02T17:41:35.361Z,99730.53
2023-04-02T17:46:47.117Z,99735.63
2023-04-02T17:51:56.167Z,99735.53
2023-04-02T17:57:27.893Z,99742.53
2023-04-02T18:02:56.954Z,99748.75
2023-04-02T18:08:13.384Z,99742.47
2023-04-02T18:13:27.573Z,99762.06
2023-04-02T18:18:50.730Z,99764.59
2023-04-02T18:24:09.660Z,99767.91
2023-04-02T18:29:24.297Z,99768.09
2023-04-02T18:34:47.957Z,99778.22
2023-04-02T18:40:02.747Z,99789.81
2023-04-02T18:45:16.321Z,99801.44
2023-04-02T18:50:25.794Z,99805.81
2023-04-02T18:55:31.396Z,99817.22
2023-04-02T19:00:38.299Z,99820.69
2023-04-02T19:05:47.826Z,99823.34
2023-04-02T19:10:54.995Z,99826.53
2023-04-02T19:16:20.903Z,99828.03
2023-04-02T19:21:36.482Z,99835.66
2023-04-02T19:26:45.142Z,99841.06
2023-04-02T19:32:01.272Z,99850.56
2023-04-02T19:37:14.298Z,99847.19
2023-04-02T19:42:31.017Z,99851.91
2023-04-02T19:47:34.050Z,99864.44
2023-04-02T19:52:38.377Z,99854.97
2023-04-02T19:57:41.538Z,99857.41
2023-04-02T20:02:44.653Z,99869.31
2023-04-02T20:07:49.089Z,99865.69
2023-04-02T20:12:52.012Z,99858.78
2023-04-02T20:17:55.423Z,99873.69
2023-04-02T20:22:59.754Z,99872.72
2023-04-02T20:28:03.998Z,99874.81
2023-04-02T20:33:07.050Z,99882.97
2023-04-02T20:38:11.743Z,99881.81
2023-04-02T20:43:14.639Z,99888.56
2023-04-02T20:48:17.557Z,99895.34
2023-04-02T20:53:21.960Z,99907.69
2023-04-02T20:58:24.852Z,99906.06
2023-04-02T21:03:27.749Z,99907.75
2023-04-02T21:08:32.031Z,99917.47
2023-04-02T21:13:36.571Z,99917.81
2023-04-02T21:18:39.445Z,99927.84
2023-04-02T21:23:45.446Z,99922.13
2023-04-02T21:28:48.511Z,99921.81
2023-04-02T21:33:53.471Z,99928.59
2023-04-02T21:38:59.684Z,99929.03
2023-04-02T21:44:04.594Z,99930.34
2023-04-02T21:49:08.407Z,99938.84
2023-04-02T21:54:12.941Z,99938.88
2023-04-02T21:59:17.344Z,99948.16
2023-04-02T22:04:22.222Z,99950.75
2023-04-02T22:09:27.538Z,99963.72
2023-04-02T22:14:31.131Z,99959.88
2023-04-02T22:19:34.110Z,99966.09
2023-04-02T22:24:38.438Z,99969.97
2023-04-02T22:29:41.377Z,99962.19
2023-04-02T22:34:45.703Z,99973.44
2023-04-02T22:39:50.081Z,99977.78
2023-04-02T22:44:53.015Z,99984.72
2023-04-02T22:49:55.922Z,99988.16
2023-04-02T22:55:00.473Z,99991.56
2023-04-02T23:00:04.796Z,99995.97
2023-04-02T23:05:09.120Z,100005.34
2023-04-02T23:10:13.564Z,100009.47
2023-04-02T23:15:17.085Z,100006.75
2023-04-02T23:20:20.334Z,100009.34
2023-04-02T23:25:24.572Z,100018.88
2023-04-02T23:30:27.482Z,100020.50
2023-04-02T23:35:30.560Z,100018.63
2023-04-02T23:40:35.215Z,100012.19
2023-04-02T23:45:38.272Z,100022.81
2023-04-02T23:50:41.290Z,100019.03
2023-04-02T23:55:46.003Z,100021.72
